createdAt,value
2022-10-10T00:01:14.813Z,9.66
2022-10-10T00:03:42.020Z,9.67
2022-10-10T00:06:09.197Z,9.70
2022-10-10T00:08:35.862Z,9.65
2022-10-10T00:11:02.390Z,9.69
2022-10-10T00:13:28.827Z,9.63
2022-10-10T00:15:55.246Z,9.68
2022-10-10T00:18:22.140Z,9.66
2022-10-10T00:20:51.727Z,9.71
2022-10-10T00:23:19.070Z,9.65
2022-10-10T00:25:45.466Z,9.70
2022-10-10T00:28:12.640Z,9.72
2022-10-10T00:30:39.661Z,9.77
2022-10-10T00:33:06.341Z,9.82
2022-10-10T00:35:32.759Z,9.81
2022-10-10T00:37:59.118Z,9.88
2022-10-10T00:40:25.822Z,9.90
2022-10-10T00:42:52.530Z,9.90
2022-10-10T00:45:39.626Z,9.96
2022-10-10T00:48:16.391Z,10.00
2022-10-10T00:50:52.409Z,9.98
2022-10-10T00:53:30.992Z,10.03
2022-10-10T00:55:57.896Z,10.03
2022-10-10T00:58:24.588Z,10.06
2022-10-10T01:00:52.368Z,10.03
2022-10-10T01:03:18.892Z,10.09
2022-10-10T01:05:47.537Z,10.11
2022-10-10T01:08:14.862Z,10.08
2022-10-10T01:11:20.141Z,10.13
2022-10-10T01:14:09.507Z,10.13
2022-10-10T01:16:55.091Z,10.16
2022-10-10T01:19:24.346Z,10.17
2022-10-10T01:22:09.609Z,10.20
2022-10-10T01:24:51.172Z,10.17
2022-10-10T01:27:47.650Z,10.14
2022-10-10T01:30:21.827Z,10.06
2022-10-10T01:32:54.402Z,10.10
2022-10-10T01:35:49.931Z,10.09
2022-10-10T01:38:39.018Z,10.03
2022-10-10T01:41:16.181Z,10.02
2022-10-10T01:43:42.945Z,9.96
2022-10-10T01:46:16.307Z,9.97
2022-10-10T01:48:50.126Z,9.96
2022-10-10T01:51:40.835Z,9.95
2022-10-10T01:54:24.427Z,9.91
2022-10-10T01:57:15.759Z,9.87
2022-10-10T02:00:09.066Z,9.86
2022-10-10T02:03:01.819Z,9.84
2022-10-10T02:05:28.146Z,9.78
2022-10-10T02:08:03.245Z,9.75
2022-10-10T02:10:37.400Z,9.71
2022-10-10T02:13:05.343Z,9.68
2022-10-10T02:15:41.224Z,9.67
2022-10-10T02:18:11.857Z,9.65
2022-10-10T02:20:39.569Z,9.58
2022-10-10T02:23:07.103Z,9.58
2022-10-10T02:25:39.092Z,9.58
2022-10-10T02:28:17.600Z,9.59
2022-10-10T02:30:46.898Z,9.53
2022-10-10T02:33:19.341Z,9.52
2022-10-10T02:35:50.186Z,9.50
2022-10-10T02:38:18.391Z,9.53
2022-10-10T02:40:47.605Z,9.46
2022-10-10T02:43:15.266Z,9.48
2022-10-10T02:45:43.925Z,9.44
2022-10-10T02:48:10.553Z,9.45
2022-10-10T02:50:37.587Z,9.44
2022-10-10T02:53:04.083Z,9.43
2022-10-10T02:55:30.458Z,9.37
2022-10-10T02:57:57.071Z,9.35
2022-10-10T03:00:23.402Z,9.40
2022-10-10T03:02:50.224Z,9.35
2022-10-10T03:05:16.836Z,9.40
2022-10-10T03:07:43.236Z,9.36
2022-10-10T03:10:10.772Z,9.33
2022-10-10T03:12:37.238Z,9.34
2022-10-10T03:15:09.188Z,9.31
2022-10-10T03:17:37.844Z,9.29
2022-10-10T03:20:05.024Z,9.28
2022-10-10T03:22:31.451Z,9.22
2022-10-10T03:24:57.785Z,9.22
2022-10-10T03:27:24.265Z,9.23
2022-10-10T03:29:50.663Z,9.17
2022-10-10T03:32:17.019Z,9.21
2022-10-10T03:34:43.427Z,9.17
2022-10-10T03:37:10.142Z,9.21
2022-10-10T03:39:36.539Z,9.13
2022-10-10T03:42:03.054Z,9.17
2022-10-10T03:44:29.397Z,9.16
2022-10-10T03:46:55.767Z,9.13
2022-10-10T03:49:22.300Z,9.12
2022-10-10T03:51:48.867Z,9.05
2022-10-10T03:54:15.254Z,9.07
2022-10-10T03:56:41.593Z,9.03
2022-10-10T03:59:08.174Z,8.91
2022-10-10T04:01:34.842Z,8.97
2022-10-10T04:04:01.479Z,8.98
2022-10-10T04:06:28.410Z,8.93
2022-10-10T04:08:54.933Z,8.88
2022-10-10T04:11:22.128Z,8.91
2022-10-10T04:13:48.670Z,8.88
2022-10-10T04:16:15.251Z,8.75
2022-10-10T04:18:41.743Z,8.77
2022-10-10T04:21:12.372Z,8.85
2022-10-10T04:23:40.533Z,8.76
2022-10-10T04:26:07.780Z,8.76
2022-10-10T04:28:34.419Z,8.77
2022-10-10T04:31:00.901Z,8.74
2022-10-10T04:33:27.239Z,8.75
2022-10-10T04:35:53.696Z,8.65
2022-10-10T04:38:21.343Z,8.71
2022-10-10T04:40:49.978Z,8.70
2022-10-10T04:43:16.772Z,8.68
2022-10-10T04:45:43.142Z,8.59
2022-10-10T04:48:09.484Z,8.67
2022-10-10T04:50:35.950Z,8.67
2022-10-10T04:53:02.588Z,8.60
2022-10-10T04:55:29.121Z,8.60
2022-10-10T04:57:55.588Z,8.62
2022-10-10T05:00:21.951Z,8.59
2022-10-10T05:02:48.638Z,8.52
2022-10-10T05:05:15.525Z,8.56
2022-10-10T05:07:42.068Z,8.53
2022-10-10T05:10:08.907Z,8.49
2022-10-10T05:12:35.461Z,8.49
2022-10-10T05:15:01.850Z,8.41
2022-10-10T05:17:28.231Z,8.42
2022-10-10T05:19:54.631Z,8.42
2022-10-10T05:22:20.999Z,8.41
2022-10-10T05:24:47.364Z,8.43
2022-10-10T05:27:13.759Z,8.42
2022-10-10T05:29:40.159Z,8.33
2022-10-10T05:32:10.054Z,8.38
2022-10-10T05:34:39.629Z,8.31
2022-10-10T05:37:06.043Z,8.35
2022-10-10T05:39:32.565Z,8.31
2022-10-10T05:41:59.072Z,8.33
2022-10-10T05:44:25.415Z,8.31
2022-10-10T05:46:51.777Z,8.31
2022-10-10T05:49:18.235Z,8.31
2022-10-10T05:51:44.659Z,8.31
2022-10-10T05:54:11.293Z,8.22
2022-10-10T05:56:37.858Z,8.27
2022-10-10T05:59:04.286Z,8.32
2022-10-10T06:01:30.865Z,8.33
2022-10-10T06:03:57.286Z,8.29
2022-10-10T06:06:25.364Z,8.35
2022-10-10T06:08:52.208Z,8.34
2022-10-10T06:11:20.490Z,8.36
2022-10-10T06:13:49.750Z,8.33
2022-10-10T06:16:16.755Z,8.39
2022-10-10T06:18:43.142Z,8.40
2022-10-10T06:21:11.644Z,8.43
2022-10-10T06:23:38.218Z,8.38
2022-10-10T06:26:04.650Z,8.47
2022-10-10T06:28:31.060Z,8.53
2022-10-10T06:31:01.946Z,8.56
2022-10-10T06:33:28.382Z,8.60
2022-10-10T06:35:55.106Z,8.61
2022-10-10T06:38:22.075Z,8.63
2022-10-10T06:40:48.491Z,8.70
2022-10-10T06:43:16.296Z,8.68
2022-10-10T06:45:45.884Z,8.76
2022-10-10T06:48:14.075Z,8.80
2022-10-10T06:50:40.486Z,8.78
2022-10-10T06:53:07.127Z,8.86
2022-10-10T06:55:33.498Z,8.82
2022-10-10T06:57:59.919Z,8.95
2022-10-10T07:00:26.622Z,9.00
2022-10-10T07:02:53.421Z,9.06
2022-10-10T07:05:20.047Z,9.09
2022-10-10T07:07:46.536Z,9.15
2022-10-10T07:10:14.909Z,9.21
2022-10-10T07:12:44.803Z,9.30
2022-10-10T07:15:11.897Z,9.46
2022-10-10T07:17:38.717Z,9.45
2022-10-10T07:20:05.761Z,9.52
2022-10-10T07:22:32.235Z,9.51
2022-10-10T07:24:58.589Z,9.70
2022-10-10T07:27:24.977Z,9.74
2022-10-10T07:29:51.379Z,9.75
2022-10-10T07:32:17.856Z,9.81
2022-10-10T07:34:44.214Z,9.96
2022-10-10T07:37:10.630Z,10.06
2022-10-10T07:39:37.139Z,10.10
2022-10-10T07:42:03.763Z,10.14
2022-10-10T07:44:34.275Z,10.29
2022-10-10T07:47:00.991Z,10.35
2022-10-10T07:49:27.503Z,10.38
2022-10-10T07:51:58.590Z,10.49
2022-10-10T07:54:28.124Z,10.62
2022-10-10T07:56:54.608Z,10.73
2022-10-10T07:59:24.256Z,10.87
2022-10-10T08:01:51.313Z,10.96
2022-10-10T08:04:18.655Z,11.09
2022-10-10T08:06:45.049Z,11.20
2022-10-10T08:09:11.615Z,11.27
2022-10-10T08:11:38.150Z,11.39
2022-10-10T08:14:04.585Z,11.47
2022-10-10T08:16:31.051Z,11.60
2022-10-10T08:18:57.571Z,11.68
2022-10-10T08:21:24.083Z,11.82
2022-10-10T08:23:50.465Z,11.91
2022-10-10T08:26:18.168Z,12.08
2022-10-10T08:28:45.266Z,12.16
2022-10-10T08:31:17.252Z,12.23
2022-10-10T08:33:45.936Z,12.39
2022-10-10T08:36:15.482Z,12.47
2022-10-10T08:38:42.280Z,12.62
2022-10-10T08:41:34.933Z,12.76
2022-10-10T08:44:06.386Z,12.83
2022-10-10T08:46:41.045Z,12.94
2022-10-10T08:49:29.987Z,13.13
2022-10-10T08:52:05.277Z,13.29
2022-10-10T08:54:33.616Z,13.34
2022-10-10T08:57:03.431Z,13.55
2022-10-10T08:59:35.498Z,13.71
2022-10-10T09:02:50.284Z,13.87
2022-10-10T09:05:26.987Z,14.00
2022-10-10T09:07:56.316Z,14.14
2022-10-10T09:10:39.656Z,14.30
2022-10-10T09:13:12.807Z,14.39
2022-10-10T09:15:54.426Z,14.54
2022-10-10T09:18:32.856Z,14.75
2022-10-10T09:21:12.667Z,14.90
2022-10-10T09:23:49.081Z,15.03
2022-10-10T09:26:20.781Z,15.18
2022-10-10T09:29:15.826Z,15.35
2022-10-10T09:31:46.051Z,15.52
2022-10-10T09:34:15.243Z,15.79
2022-10-10T09:36:45.046Z,15.86
2022-10-10T09:39:27.372Z,16.12
2022-10-10T09:42:01.732Z,16.40
2022-10-10T09:44:29.398Z,16.75
2022-10-10T09:46:56.229Z,17.08
2022-10-10T09:49:24.926Z,17.36
2022-10-10T09:51:52.016Z,17.81
2022-10-10T09:54:20.105Z,18.15
2022-10-10T09:56:58.033Z,18.55
2022-10-10T09:59:41.275Z,18.92
2022-10-10T10:02:25.258Z,19.19
2022-10-10T10:04:53.054Z,19.42
2022-10-10T10:07:21.030Z,19.49
2022-10-10T10:09:59.674Z,19.75
2022-10-10T10:12:36.818Z,19.79
2022-10-10T10:15:16.056Z,19.84
2022-10-10T10:17:42.676Z,19.92
2022-10-10T10:20:31.433Z,20.08
2022-10-10T10:22:57.879Z,20.08
2022-10-10T10:25:37.112Z,20.15
2022-10-10T10:28:14.932Z,20.24
2022-10-10T10:30:43.446Z,20.31
2022-10-10T10:33:18.665Z,20.55
2022-10-10T10:36:13.546Z,20.78
2022-10-10T10:38:39.971Z,20.86
2022-10-10T10:41:32.307Z,21.08
2022-10-10T10:44:14.764Z,21.21
2022-10-10T10:46:57.293Z,21.40
2022-10-10T10:50:08.618Z,21.70
2022-10-10T10:52:40.857Z,21.79
2022-10-10T10:55:33.234Z,21.94
2022-10-10T11:01:57.367Z,22.24
2022-10-10T11:05:17.267Z,22.22
2022-10-10T11:07:57.806Z,21.97
2022-10-10T11:10:35.154Z,21.79
2022-10-10T11:13:39.221Z,21.76
2022-10-10T11:16:46.792Z,21.55
2022-10-10T11:19:37.187Z,21.46
2022-10-10T11:22:13.883Z,21.30
2022-10-10T11:24:51.884Z,21.16
2022-10-10T11:27:39.228Z,21.14
2022-10-10T11:30:08.135Z,21.03
2022-10-10T11:32:48.530Z,21.11
2022-10-10T11:35:27.043Z,21.26
2022-10-10T11:38:01.343Z,21.26
2022-10-10T11:40:45.503Z,21.49
2022-10-10T11:43:19.593Z,21.47
2022-10-10T11:45:52.323Z,21.57
2022-10-10T11:48:35.536Z,21.55
2022-10-10T11:51:16.396Z,21.71
2022-10-10T11:53:45.777Z,21.68
2022-10-10T11:56:28.614Z,21.77
2022-10-10T11:59:01.861Z,21.92
2022-10-10T12:01:30.960Z,21.89
2022-10-10T12:03:57.536Z,21.91
2022-10-10T12:06:30.608Z,21.96
2022-10-10T12:09:03.688Z,21.95
2022-10-10T12:11:36.510Z,21.88
2022-10-10T12:14:07.263Z,21.94
2022-10-10T12:16:37.847Z,21.97
2022-10-10T12:19:07.091Z,21.94
2022-10-10T12:21:56.091Z,21.94
2022-10-10T12:24:24.213Z,21.71
2022-10-10T12:26:56.643Z,21.65
2022-10-10T12:30:01.618Z,21.59
2022-10-10T12:32:41.020Z,21.41
2022-10-10T12:35:29.335Z,21.47
2022-10-10T12:38:04.720Z,21.53
2022-10-10T12:40:32.893Z,21.47
2022-10-10T12:43:02.142Z,21.62
2022-10-10T12:45:28.532Z,21.76
2022-10-10T12:48:06.367Z,21.87
2022-10-10T12:50:39.749Z,21.96
2022-10-10T12:53:18.009Z,22.13
2022-10-10T12:55:51.872Z,22.12
2022-10-10T12:58:27.103Z,22.08
2022-10-10T13:00:57.909Z,22.07
2022-10-10T13:03:27.210Z,22.29
2022-10-10T13:06:03.009Z,22.02
2022-10-10T13:08:30.586Z,21.95
2022-10-10T13:11:11.969Z,21.98
2022-10-10T13:13:40.421Z,21.94
2022-10-10T13:16:13.127Z,21.89
2022-10-10T13:18:52.598Z,21.93
2022-10-10T13:21:23.693Z,21.85
2022-10-10T13:26:44.875Z,21.67
2022-10-10T13:29:32.434Z,21.69
2022-10-10T13:32:23.995Z,21.65
2022-10-10T13:34:55.535Z,21.45
2022-10-10T13:37:22.885Z,21.47
2022-10-10T13:39:50.850Z,21.42
2022-10-10T13:42:39.714Z,21.38
2022-10-10T13:45:38.131Z,21.33
2022-10-10T13:48:04.445Z,21.16
2022-10-10T13:50:35.371Z,21.04
2022-10-10T13:53:27.147Z,20.92
2022-10-10T13:56:10.286Z,20.77
2022-10-10T13:58:56.188Z,20.57
2022-10-10T14:01:43.556Z,20.52
2022-10-10T14:04:12.916Z,20.30
2022-10-10T14:06:41.063Z,20.14
2022-10-10T14:09:15.778Z,20.19
2022-10-10T14:11:43.403Z,20.07
2022-10-10T14:14:17.632Z,20.08
2022-10-10T14:16:43.975Z,20.06
2022-10-10T14:19:19.412Z,20.05
2022-10-10T14:21:45.769Z,20.00
2022-10-10T14:24:12.182Z,19.95
2022-10-10T14:26:38.810Z,19.91
2022-10-10T14:29:10.443Z,19.83
2022-10-10T14:31:36.852Z,19.83
2022-10-10T14:34:03.284Z,19.78
2022-10-10T14:36:29.686Z,19.75
2022-10-10T14:38:56.108Z,19.73
2022-10-10T14:41:22.622Z,19.73
2022-10-10T14:43:49.003Z,19.68
2022-10-10T14:46:19.629Z,19.67
2022-10-10T14:48:46.876Z,19.61
2022-10-10T14:51:34.205Z,19.58
2022-10-10T14:54:11.870Z,19.52
2022-10-10T14:57:08.634Z,19.40
2022-10-10T14:59:49.254Z,19.45
2022-10-10T15:02:15.546Z,19.34
2022-10-10T15:04:42.102Z,19.18
2022-10-10T15:07:14.247Z,19.20
2022-10-10T15:09:51.523Z,19.17
2022-10-10T15:12:27.820Z,19.13
2022-10-10T15:14:54.214Z,19.04
2022-10-10T15:17:20.640Z,19.04
2022-10-10T15:19:47.012Z,18.87
2022-10-10T15:22:13.359Z,18.85
2022-10-10T15:24:39.719Z,18.83
2022-10-10T15:27:06.055Z,18.72
2022-10-10T15:29:32.539Z,18.77
2022-10-10T15:32:00.518Z,18.61
2022-10-10T15:34:27.228Z,18.69
2022-10-10T15:36:56.658Z,18.59
2022-10-10T15:39:23.193Z,18.61
2022-10-10T15:41:49.557Z,18.63
2022-10-10T15:44:18.133Z,18.52
2022-10-10T15:46:45.307Z,18.42
2022-10-10T15:49:13.450Z,18.49
2022-10-10T15:51:45.159Z,18.48
2022-10-10T15:54:12.431Z,18.46
2022-10-10T15:56:42.230Z,18.41
2022-10-10T15:59:09.490Z,18.40
2022-10-10T16:01:36.130Z,18.26
2022-10-10T16:04:04.592Z,18.24
2022-10-10T16:06:31.034Z,18.13
2022-10-10T16:09:23.411Z,18.11
2022-10-10T16:11:43.841Z,17.93
2022-10-10T16:14:10.695Z,17.80
2022-10-10T16:16:37.155Z,17.80
2022-10-10T16:19:03.695Z,17.74
2022-10-10T16:21:31.534Z,17.52
2022-10-10T16:23:58.307Z,17.40
2022-10-10T16:26:29.177Z,17.29
2022-10-10T16:28:56.762Z,17.09
2022-10-10T16:31:25.000Z,16.90
2022-10-10T16:33:52.174Z,16.74
2022-10-10T16:36:21.859Z,16.58
2022-10-10T16:38:49.984Z,16.40
2022-10-10T16:41:42.620Z,16.16
2022-10-10T16:44:04.562Z,16.13
2022-10-10T16:46:30.993Z,15.98
2022-10-10T16:48:59.515Z,15.85
2022-10-10T16:51:28.332Z,15.78
2022-10-10T16:53:55.530Z,15.66
2022-10-10T16:56:22.324Z,15.52
2022-10-10T16:58:50.616Z,15.47
2022-10-10T17:01:23.617Z,15.35
2022-10-10T17:03:51.340Z,15.33
2022-10-10T17:06:20.994Z,15.18
2022-10-10T17:08:49.455Z,15.19
2022-10-10T17:11:17.691Z,15.16
2022-10-10T17:13:44.874Z,15.16
2022-10-10T17:19:03.891Z,15.09
2022-10-10T17:21:31.354Z,15.07
2022-10-10T17:24:03.318Z,15.00
2022-10-10T17:26:29.694Z,14.96
2022-10-10T17:28:57.694Z,14.88
2022-10-10T17:31:25.274Z,14.77
2022-10-10T17:33:54.319Z,14.66
2022-10-10T17:36:23.747Z,14.57
2022-10-10T17:38:50.491Z,14.42
2022-10-10T17:41:18.432Z,14.24
2022-10-10T17:43:45.565Z,14.15
2022-10-10T17:46:35.750Z,14.09
2022-10-10T17:49:04.971Z,13.99
2022-10-10T17:51:31.388Z,13.87
2022-10-10T17:54:01.594Z,13.83
2022-10-10T17:56:28.000Z,13.86
2022-10-10T17:58:54.700Z,13.70
2022-10-10T18:01:22.145Z,13.61
2022-10-10T18:03:49.012Z,13.56
2022-10-10T18:06:21.325Z,13.52
2022-10-10T18:08:51.939Z,13.42
2022-10-10T18:11:22.174Z,13.41
2022-10-10T18:13:48.996Z,13.47
2022-10-10T18:16:18.670Z,13.30
2022-10-10T18:18:50.725Z,13.23
2022-10-10T18:21:18.927Z,13.08
2022-10-10T18:23:45.505Z,13.04
2022-10-10T18:26:15.398Z,12.97
2022-10-10T18:28:42.629Z,12.85
2022-10-10T18:31:17.934Z,12.81
2022-10-10T18:33:44.997Z,12.70
2022-10-10T18:36:14.494Z,12.69
2022-10-10T18:38:41.511Z,12.62
2022-10-10T18:41:13.571Z,12.55
2022-10-10T18:43:40.696Z,12.40
2022-10-10T18:46:09.037Z,12.42
2022-10-10T18:48:36.480Z,12.31
2022-10-10T18:51:11.834Z,12.30
2022-10-10T18:53:47.488Z,12.23
2022-10-10T18:56:16.557Z,12.14
2022-10-10T18:58:42.955Z,11.97
2022-10-10T19:01:12.779Z,12.07
2022-10-10T19:03:40.471Z,12.03
2022-10-10T19:06:09.737Z,11.98
2022-10-10T19:08:37.174Z,11.95
2022-10-10T19:11:05.956Z,11.93
2022-10-10T19:13:33.649Z,11.87
2022-10-10T19:16:04.780Z,11.85
2022-10-10T19:18:31.275Z,11.78
2022-10-10T19:21:04.415Z,11.74
2022-10-10T19:23:32.130Z,11.76
2022-10-10T19:26:02.268Z,11.74
2022-10-10T19:28:28.769Z,11.68
2022-10-10T19:30:55.771Z,11.74
2022-10-10T19:33:22.243Z,11.73
2022-10-10T19:35:51.423Z,11.71
2022-10-10T19:38:19.278Z,11.67
2022-10-10T19:40:47.115Z,11.56
2022-10-10T19:43:14.521Z,11.70
2022-10-10T19:45:42.565Z,11.66
2022-10-10T19:48:09.137Z,11.68
2022-10-10T19:50:40.696Z,11.65
2022-10-10T19:53:07.769Z,11.61
2022-10-10T19:55:34.238Z,11.69
2022-10-10T19:58:00.633Z,11.69
2022-10-10T20:00:27.357Z,11.70
2022-10-10T20:02:53.695Z,11.70
2022-10-10T20:05:20.847Z,11.66
2022-10-10T20:07:50.433Z,11.71
2022-10-10T20:10:17.568Z,11.70
2022-10-10T20:12:43.972Z,11.69
2022-10-10T20:15:10.779Z,11.68
2022-10-10T20:17:37.568Z,11.62
2022-10-10T20:20:05.312Z,11.66
2022-10-10T20:22:34.282Z,11.53
2022-10-10T20:25:01.329Z,11.52
2022-10-10T20:27:31.251Z,11.52
2022-10-10T20:29:58.239Z,11.51
2022-10-10T20:32:24.673Z,11.55
2022-10-10T20:34:51.040Z,11.54
2022-10-10T20:37:17.376Z,11.47
2022-10-10T20:39:43.738Z,11.38
2022-10-10T20:42:10.222Z,11.47
2022-10-10T20:44:36.809Z,11.43
2022-10-10T20:47:03.332Z,11.44
2022-10-10T20:49:29.841Z,11.42
2022-10-10T20:51:56.216Z,11.32
2022-10-10T20:54:24.617Z,11.37
2022-10-10T20:56:51.434Z,11.29
2022-10-10T20:59:19.410Z,11.33
2022-10-10T21:01:45.936Z,11.34
2022-10-10T21:04:14.039Z,11.24
2022-10-10T21:06:42.697Z,11.31
2022-10-10T21:09:10.886Z,11.31
2022-10-10T21:11:39.026Z,11.19
2022-10-10T21:14:06.545Z,11.25
2022-10-10T21:16:36.218Z,11.29
2022-10-10T21:19:03.489Z,11.14
2022-10-10T21:21:32.482Z,11.15
2022-10-10T21:23:59.491Z,11.19
2022-10-10T21:26:28.156Z,11.23
2022-10-10T21:28:55.838Z,11.18
2022-10-10T21:31:31.225Z,11.14
2022-10-10T21:33:59.949Z,11.18
2022-10-10T21:36:26.729Z,11.18
2022-10-10T21:38:55.890Z,11.18
2022-10-10T21:41:23.649Z,11.20
2022-10-10T21:43:54.599Z,11.22
2022-10-10T21:46:24.338Z,11.14
2022-10-10T21:48:53.806Z,11.23
2022-10-10T21:51:21.464Z,11.25
2022-10-10T21:53:48.459Z,11.23
2022-10-10T21:56:15.244Z,11.23
2022-10-10T21:58:43.764Z,11.17
2022-10-10T22:01:13.230Z,11.19
2022-10-10T22:03:39.635Z,11.09
2022-10-10T22:06:10.500Z,11.05
2022-10-10T22:08:38.155Z,11.12
2022-10-10T22:11:07.504Z,11.10
2022-10-10T22:13:33.990Z,11.11
2022-10-10T22:16:01.102Z,11.05
2022-10-10T22:18:27.664Z,11.07
2022-10-10T22:20:54.369Z,11.05
2022-10-10T22:23:21.282Z,11.06
2022-10-10T22:25:49.659Z,11.06
2022-10-10T22:28:16.865Z,11.03
2022-10-10T22:30:43.962Z,11.01
2022-10-10T22:33:10.687Z,11.00
2022-10-10T22:35:37.274Z,10.95
2022-10-10T22:38:04.172Z,10.88
2022-10-10T22:40:30.977Z,10.97
2022-10-10T22:42:57.864Z,10.94
2022-10-10T22:45:24.611Z,10.87
2022-10-10T22:47:51.061Z,10.91
2022-10-10T22:50:18.383Z,10.90
2022-10-10T22:52:45.096Z,10.89
2022-10-10T22:55:17.221Z,10.87
2022-10-10T22:57:44.742Z,10.80
2022-10-10T23:00:12.338Z,10.75
2022-10-10T23:02:39.051Z,10.67
2022-10-10T23:05:06.084Z,10.75
2022-10-10T23:07:32.778Z,10.69
2022-10-10T23:09:59.180Z,10.73
2022-10-10T23:12:25.556Z,10.75
2022-10-10T23:14:52.028Z,10.69
2022-10-10T23:17:18.457Z,10.76
2022-10-10T23:19:44.885Z,10.73
2022-10-10T23:22:12.789Z,10.75
2022-10-10T23:24:39.921Z,10.80
2022-10-10T23:27:06.377Z,10.73
2022-10-10T23:29:33.101Z,10.77
2022-10-10T23:31:59.599Z,10.77
2022-10-10T23:34:26.131Z,10.70
2022-10-10T23:36:52.804Z,10.76
2022-10-10T23:39:19.188Z,10.76
2022-10-10T23:41:45.674Z,10.73
2022-10-10T23:44:12.138Z,10.73
2022-10-10T23:46:38.780Z,10.72
2022-10-10T23:49:05.148Z,10.65
2022-10-10T23:51:32.150Z,10.67
2022-10-10T23:53:58.715Z,10.67
2022-10-10T23:56:25.226Z,10.66
2022-10-10T23:58:51.666Z,10.60
